Mocanaqua, Pennsylvania
Current Conditions -  °F | °C
As of 5:35 PM on Sunday 23 Nov 2014 (Local Time) from KHZL Reporting Station
Clear Clear  
Wind Chill: 43°   Ceiling: Unl
Heat Index: 46°   Visibility: 10mi
Dew Point: 25°   Wind: 7mph
Humidity: 43%   Direction: 140°SE
Pressure: 30.07"   Gusts: NA
Location:  41.1968°N, 76.1956°W
Report Text: KHZL 232235Z AUTO 14006KT 10SM CLR 08/M04 A3007 RMK AO2
Loading
Personal Weather Stations






























Interactive Weather Map New forecast layout! Learn more

10-Day Weather Forecast

Advertisements
Track Severe Weather on mobile